createdAt,value
2019-05-16T00:00:29.270Z,102500.19
2019-05-16T00:02:31.487Z,102502.91
2019-05-16T00:04:34.618Z,102497.72
2019-05-16T00:06:39.129Z,102503.20
2019-05-16T00:08:42.062Z,102502.42
2019-05-16T00:10:44.120Z,102506.33
2019-05-16T00:12:48.716Z,102499.70
2019-05-16T00:14:50.518Z,102496.67
2019-05-16T00:16:52.519Z,102503.60
2019-05-16T00:18:54.710Z,102502.22
2019-05-16T00:20:58.477Z,102495.13
2019-05-16T00:23:00.691Z,102496.70
2019-05-16T00:25:03.172Z,102496.45
2019-05-16T00:27:08.283Z,102493.45
2019-05-16T00:29:13.792Z,102499.00
2019-05-16T00:31:18.168Z,102495.45
2019-05-16T00:33:20.280Z,102496.80
2019-05-16T00:35:22.852Z,102502.32
2019-05-16T00:37:25.185Z,102501.23
2019-05-16T00:39:28.058Z,102494.54
2019-05-16T00:41:30.425Z,102497.33
2019-05-16T00:43:32.753Z,102494.44
2019-05-16T00:45:34.995Z,102491.38
2019-05-16T00:47:38.877Z,102492.77
2019-05-16T00:49:41.498Z,102493.48
2019-05-16T00:51:43.559Z,102490.47
2019-05-16T00:53:45.720Z,102485.54
2019-05-16T00:55:48.108Z,102479.44
2019-05-16T00:57:50.355Z,102479.80
2019-05-16T00:59:53.319Z,102489.22
2019-05-16T01:01:55.516Z,102481.50
2019-05-16T01:03:58.624Z,102479.56
2019-05-16T01:06:00.786Z,102482.41
2019-05-16T01:08:03.034Z,102475.78
2019-05-16T01:10:05.963Z,102474.08
2019-05-16T01:12:08.476Z,102467.53
2019-05-16T01:14:10.938Z,102472.02
2019-05-16T01:16:13.321Z,102463.96
2019-05-16T01:18:15.815Z,102467.36
2019-05-16T01:20:19.168Z,102467.92
2019-05-16T01:22:21.710Z,102471.49
2019-05-16T01:24:23.884Z,102462.70
2019-05-16T01:26:26.030Z,102465.72
2019-05-16T01:28:28.413Z,102461.58
2019-05-16T01:30:31.793Z,102462.75
2019-05-16T01:32:33.913Z,102464.16
2019-05-16T01:34:37.788Z,102465.83
2019-05-16T01:36:40.747Z,102465.24
2019-05-16T01:38:43.273Z,102469.41
2019-05-16T01:40:45.308Z,102464.73
2019-05-16T01:42:48.953Z,102464.45
2019-05-16T01:44:51.474Z,102464.16
2019-05-16T01:46:53.492Z,102463.89
2019-05-16T01:48:57.655Z,102464.73
2019-05-16T01:50:59.638Z,102458.38
2019-05-16T01:53:01.781Z,102457.05
2019-05-16T01:55:04.082Z,102457.37
2019-05-16T01:57:08.115Z,102452.44
2019-05-16T01:59:10.141Z,102453.31
2019-05-16T02:01:15.882Z,102450.56
2019-05-16T02:03:18.990Z,102455.75
2019-05-16T02:05:21.268Z,102454.38
2019-05-16T02:07:23.264Z,102455.54
2019-05-16T02:09:28.056Z,102450.34
2019-05-16T02:11:30.424Z,102445.09
2019-05-16T02:13:32.468Z,102454.98
2019-05-16T02:15:34.636Z,102449.55
2019-05-16T02:17:38.419Z,102451.48
2019-05-16T02:19:40.609Z,102450.70
2019-05-16T02:21:42.764Z,102450.94
2019-05-16T02:23:44.924Z,102449.57
2019-05-16T02:25:48.954Z,102446.25
2019-05-16T02:27:51.405Z,102442.15
2019-05-16T02:29:53.388Z,102450.14
2019-05-16T02:31:55.610Z,102439.38
2019-05-16T02:33:57.801Z,102444.13
2019-05-16T02:36:01.714Z,102439.44
2019-05-16T02:38:03.913Z,102442.77
2019-05-16T02:40:11.652Z,102438.33
2019-05-16T02:42:12.332Z,102439.20
2019-05-16T02:44:14.605Z,102438.62
2019-05-16T02:46:16.837Z,102439.45
2019-05-16T02:48:21.324Z,102443.32
2019-05-16T02:50:22.930Z,102438.72
2019-05-16T02:52:25.166Z,102441.17
2019-05-16T02:54:27.278Z,102441.44
2019-05-16T02:56:31.701Z,102433.41
2019-05-16T02:58:33.712Z,102435.12
2019-05-16T03:00:36.467Z,102434.04
2019-05-16T03:02:41.918Z,102429.06
2019-05-16T03:04:44.400Z,102421.07
2019-05-16T03:06:47.480Z,102423.09
2019-05-16T03:08:50.857Z,102423.91
2019-05-16T03:10:54.276Z,102412.63
2019-05-16T03:13:00.588Z,102414.28
2019-05-16T03:15:02.514Z,102412.36
2019-05-16T03:17:05.328Z,102407.67
2019-05-16T03:19:11.307Z,102407.72
2019-05-16T03:21:13.178Z,102410.21
2019-05-16T03:23:15.269Z,102399.49
2019-05-16T03:25:17.357Z,102398.66
2019-05-16T03:27:21.566Z,102401.41
2019-05-16T03:29:23.558Z,102401.41
2019-05-16T03:31:25.730Z,102403.85
2019-05-16T03:33:35.156Z,102395.92
2019-05-16T03:35:34.173Z,102390.41
2019-05-16T03:37:50.205Z,102387.94
2019-05-16T03:39:40.768Z,102390.94
2019-05-16T03:41:43.115Z,102385.98
2019-05-16T03:43:44.889Z,102381.61
2019-05-16T03:45:47.007Z,102381.61
2019-05-16T03:47:51.137Z,102385.43
2019-05-16T03:49:53.573Z,102380.48
2019-05-16T03:51:55.615Z,102377.77
2019-05-16T03:53:58.246Z,102387.97
2019-05-16T03:56:01.787Z,102384.38
2019-05-16T03:58:03.780Z,102388.77
2019-05-16T04:00:06.041Z,102383.80
2019-05-16T04:02:10.730Z,102382.42
2019-05-16T04:04:12.355Z,102383.26
2019-05-16T04:06:14.603Z,102390.41
2019-05-16T04:08:20.662Z,102386.52
2019-05-16T04:10:21.585Z,102386.77
2019-05-16T04:12:24.082Z,102386.49
2019-05-16T04:14:26.060Z,102382.62
2019-05-16T04:16:31.072Z,102390.88
2019-05-16T04:18:32.420Z,102385.95
2019-05-16T04:20:34.763Z,102379.59
2019-05-16T04:22:36.865Z,102384.32
2019-05-16T04:24:41.763Z,102382.10
2019-05-16T04:26:44.150Z,102388.19
2019-05-16T04:28:46.134Z,102386.80
2019-05-16T04:30:50.783Z,102389.83
2019-05-16T04:32:52.308Z,102383.80
2019-05-16T04:34:54.266Z,102378.81
2019-05-16T04:36:56.578Z,102382.67
2019-05-16T04:39:01.808Z,102383.79
2019-05-16T04:41:03.320Z,102383.20
2019-05-16T04:43:05.463Z,102383.26
2019-05-16T04:45:07.912Z,102391.24
2019-05-16T04:47:10.997Z,102392.06
2019-05-16T04:49:13.631Z,102400.33
2019-05-16T04:51:15.332Z,102402.52
2019-05-16T04:53:20.519Z,102398.12
2019-05-16T04:55:21.616Z,102398.38
2019-05-16T04:57:23.606Z,102391.20
2019-05-16T04:59:25.594Z,102392.00
2019-05-16T05:01:30.653Z,102393.63
2019-05-16T05:03:31.996Z,102390.32
2019-05-16T05:05:34.268Z,102393.05
2019-05-16T05:07:36.543Z,102390.83
2019-05-16T05:09:40.925Z,102389.17
2019-05-16T05:11:42.721Z,102383.93
2019-05-16T05:13:44.889Z,102382.50
2019-05-16T05:15:47.031Z,102379.23
2019-05-16T05:17:50.289Z,102383.02
2019-05-16T05:19:52.701Z,102380.77
2019-05-16T05:21:54.782Z,102383.25
2019-05-16T05:23:57.123Z,102375.76
2019-05-16T05:26:00.282Z,102376.84
2019-05-16T05:28:02.536Z,102378.22
2019-05-16T05:30:05.113Z,102380.98
2019-05-16T05:32:07.563Z,102379.02
2019-05-16T05:34:10.599Z,102380.05
2019-05-16T05:36:14.125Z,102373.37
2019-05-16T05:38:16.289Z,102377.20
2019-05-16T05:40:20.096Z,102373.95
2019-05-16T05:42:22.407Z,102370.14
2019-05-16T05:44:25.522Z,102375.06
2019-05-16T05:46:27.542Z,102380.81
2019-05-16T05:48:31.150Z,102377.64
2019-05-16T05:50:33.333Z,102370.34
2019-05-16T05:52:35.449Z,102366.13
2019-05-16T05:54:40.587Z,102364.63
2019-05-16T05:56:41.711Z,102361.81
2019-05-16T05:58:43.500Z,102360.35
2019-05-16T06:01:31.265Z,102360.16
2019-05-16T06:03:33.154Z,102362.75
2019-05-16T06:05:35.348Z,102366.49
2019-05-16T06:07:40.187Z,102368.66
2019-05-16T06:09:52.451Z,102371.54
2019-05-16T06:11:50.164Z,102369.98
2019-05-16T06:13:52.429Z,102365.77
2019-05-16T06:15:54.647Z,102364.73
2019-05-16T06:17:56.628Z,102367.88
2019-05-16T06:20:00.295Z,102360.12
2019-05-16T06:22:02.807Z,102366.77
2019-05-16T06:24:04.821Z,102358.70
2019-05-16T06:26:06.963Z,102362.48
2019-05-16T06:28:10.587Z,102357.79
2019-05-16T06:30:12.985Z,102355.13
2019-05-16T06:32:15.086Z,102354.84
2019-05-16T06:34:17.398Z,102350.72
2019-05-16T06:36:20.478Z,102338.87
2019-05-16T06:38:22.681Z,102340.45
2019-05-16T06:40:25.933Z,102339.27
2019-05-16T06:42:29.895Z,102335.25
2019-05-16T06:44:31.904Z,102335.89
2019-05-16T06:46:44.049Z,102330.84
2019-05-16T06:48:39.832Z,102321.99
2019-05-16T06:50:43.004Z,102317.51
2019-05-16T06:52:45.912Z,102320.91
2019-05-16T06:54:50.381Z,102325.16
2019-05-16T06:56:51.982Z,102325.08
2019-05-16T06:58:54.621Z,102319.56
2019-05-16T07:01:00.425Z,102326.16
2019-05-16T07:03:01.949Z,102323.25
2019-05-16T07:05:04.652Z,102316.56
2019-05-16T07:07:09.491Z,102315.19
2019-05-16T07:09:10.844Z,102313.74
2019-05-16T07:11:12.932Z,102316.88
2019-05-16T07:13:14.944Z,102317.51
2019-05-16T07:15:20.463Z,102319.59
2019-05-16T07:17:22.581Z,102315.72
2019-05-16T07:19:24.814Z,102315.78
2019-05-16T07:21:26.802Z,102310.25
2019-05-16T07:23:29.963Z,102307.95
2019-05-16T07:25:32.235Z,102313.73
2019-05-16T07:27:34.275Z,102308.41
2019-05-16T07:29:36.406Z,102304.91
2019-05-16T07:31:40.611Z,102301.05
2019-05-16T07:33:42.590Z,102302.97
2019-05-16T07:35:46.177Z,102299.05
2019-05-16T07:37:49.857Z,102298.48
2019-05-16T07:39:51.655Z,102299.98
2019-05-16T07:41:54.005Z,102299.84
2019-05-16T07:43:56.064Z,102297.96
2019-05-16T07:46:00.227Z,102304.59
2019-05-16T07:48:02.539Z,102298.11
2019-05-16T07:50:05.795Z,102303.96
2019-05-16T07:52:09.899Z,102305.28
2019-05-16T07:54:12.007Z,102289.12
2019-05-16T07:56:14.006Z,102292.92
2019-05-16T07:58:16.242Z,102295.28
2019-05-16T08:00:21.533Z,102286.55
2019-05-16T08:02:22.921Z,102295.86
2019-05-16T08:04:26.449Z,102295.38
2019-05-16T08:06:33.697Z,102296.37
2019-05-16T08:08:32.586Z,102296.01
2019-05-16T08:10:41.869Z,102291.47
2019-05-16T08:12:40.653Z,102291.50
2019-05-16T08:14:42.705Z,102287.17
2019-05-16T08:16:44.815Z,102278.31
2019-05-16T08:18:50.362Z,102274.95
2019-05-16T08:20:52.704Z,102272.61
2019-05-16T08:22:54.877Z,102273.10
2019-05-16T08:25:00.125Z,102265.90
2019-05-16T08:27:01.996Z,102274.26
2019-05-16T08:29:04.102Z,102275.91
2019-05-16T08:31:11.676Z,102276.56
2019-05-16T08:35:20.841Z,102265.44
2019-05-16T08:39:26.088Z,102267.13
2019-05-16T08:41:31.275Z,102261.30
2019-05-16T08:43:32.627Z,102265.70
2019-05-16T08:45:34.711Z,102268.04
2019-05-16T08:47:36.722Z,102272.16
2019-05-16T08:49:42.196Z,102261.64
2019-05-16T08:51:43.309Z,102262.82
2019-05-16T08:53:45.277Z,102264.45
2019-05-16T08:55:50.344Z,102257.55
2019-05-16T08:57:53.213Z,102256.77
2019-05-16T08:59:55.433Z,102248.75
2019-05-16T09:02:02.368Z,102248.58
2019-05-16T09:04:01.986Z,102242.61
2019-05-16T09:06:04.004Z,102246.87
2019-05-16T09:08:06.273Z,102250.37
2019-05-16T09:10:28.428Z,102269.72
2019-05-16T09:10:34.106Z,102267.48
2019-05-16T09:10:41.206Z,102241.55
2019-05-16T09:12:13.060Z,102232.95
2019-05-16T09:14:17.198Z,102230.45
2019-05-16T09:16:19.343Z,102232.77
2019-05-16T09:18:21.328Z,102224.61
2019-05-16T09:20:23.667Z,102227.84
2019-05-16T09:22:28.131Z,102226.30
2019-05-16T09:24:29.698Z,102216.77
2019-05-16T09:26:32.318Z,102221.50
2019-05-16T09:28:34.289Z,102213.17
2019-05-16T09:30:37.111Z,102215.75
2019-05-16T09:32:42.638Z,102214.57
2019-05-16T09:34:43.517Z,102212.55
2019-05-16T09:36:48.075Z,102213.40
2019-05-16T09:38:49.712Z,102220.64
2019-05-16T09:40:51.734Z,102209.64
2019-05-16T09:42:56.681Z,102218.38
2019-05-16T09:44:58.159Z,102218.03
2019-05-16T09:47:00.175Z,102210.27
2019-05-16T09:49:16.829Z,102221.21
2019-05-16T09:51:06.755Z,102216.28
2019-05-16T09:53:08.802Z,102218.48
2019-05-16T09:55:13.965Z,102213.78
2019-05-16T09:57:17.494Z,102214.45
2019-05-16T09:59:20.273Z,102212.04
2019-05-16T10:01:21.906Z,102207.55
2019-05-16T10:03:24.211Z,102205.22
2019-05-16T10:05:27.023Z,102200.08
2019-05-16T10:07:28.955Z,102198.02
2019-05-16T10:09:44.105Z,102198.38
2019-05-16T10:11:40.866Z,102198.88
2019-05-16T10:13:39.224Z,102191.81
2019-05-16T10:15:41.777Z,102199.36
2019-05-16T10:17:43.932Z,102186.68
2019-05-16T10:19:47.578Z,102197.45
2019-05-16T10:21:50.103Z,102192.79
2019-05-16T10:23:52.098Z,102188.19
2019-05-16T10:25:56.683Z,102191.34
2019-05-16T10:27:58.544Z,102184.05
2019-05-16T10:30:01.925Z,102181.59
2019-05-16T10:32:07.437Z,102177.84
2019-05-16T10:34:09.031Z,102177.14
2019-05-16T10:36:11.040Z,102176.48
2019-05-16T10:38:13.040Z,102174.12
2019-05-16T10:40:18.286Z,102176.25
2019-05-16T10:42:28.060Z,102182.61
2019-05-16T10:44:23.987Z,102177.23
2019-05-16T10:46:26.982Z,102178.20
2019-05-16T10:48:29.114Z,102163.08
2019-05-16T10:50:31.166Z,102165.30
2019-05-16T10:52:33.533Z,102154.36
2019-05-16T10:54:36.987Z,102146.84
2019-05-16T10:56:40.398Z,102148.42
2019-05-16T10:59:03.839Z,102137.78
2019-05-16T11:01:11.283Z,102133.28
2019-05-16T11:02:51.278Z,102136.02
2019-05-16T11:05:02.820Z,102131.28
2019-05-16T11:06:57.378Z,102124.22
2019-05-16T11:08:59.638Z,102126.59
2019-05-16T11:11:02.030Z,102112.92
2019-05-16T11:13:07.868Z,102110.56
2019-05-16T11:15:11.845Z,102108.95
2019-05-16T11:17:14.562Z,102110.23
2019-05-16T11:19:21.362Z,102114.54
2019-05-16T11:21:20.320Z,102111.05
2019-05-16T11:23:24.078Z,102109.69
2019-05-16T11:25:31.756Z,102103.89
2019-05-16T11:27:30.409Z,102107.14
2019-05-16T11:29:32.721Z,102103.05
2019-05-16T11:31:37.147Z,102097.42
2019-05-16T11:33:38.817Z,102100.23
2019-05-16T11:35:41.413Z,102096.95
2019-05-16T11:37:47.072Z,102092.44
2019-05-16T11:39:48.633Z,102093.12
2019-05-16T11:41:50.984Z,102094.05
2019-05-16T11:43:52.997Z,102089.88
2019-05-16T11:45:57.238Z,102087.80
2019-05-16T11:47:59.413Z,102090.48
2019-05-16T11:50:00.988Z,102082.53
2019-05-16T11:52:03.421Z,102088.61
2019-05-16T11:54:06.921Z,102095.38
2019-05-16T11:56:09.152Z,102084.72
2019-05-16T11:58:11.186Z,102091.70
2019-05-16T12:00:17.936Z,102084.39
2019-05-16T12:02:19.418Z,102074.77
2019-05-16T12:04:21.442Z,102076.42
2019-05-16T12:06:23.707Z,102069.59
2019-05-16T12:08:26.619Z,102075.56
2019-05-16T12:10:28.688Z,102072.47
2019-05-16T12:12:30.821Z,102071.17
2019-05-16T12:14:32.824Z,102065.13
2019-05-16T12:16:37.792Z,102056.99
2019-05-16T12:18:39.974Z,102061.98
2019-05-16T12:20:41.999Z,102057.39
2019-05-16T12:22:44.056Z,102051.56
2019-05-16T12:24:47.742Z,102046.16
2019-05-16T12:26:49.891Z,102036.14
2019-05-16T12:28:52.138Z,102030.91
2019-05-16T12:30:56.322Z,102030.87
2019-05-16T12:32:58.460Z,102031.58
2019-05-16T12:35:00.476Z,102033.70
2019-05-16T12:37:02.640Z,102025.31
2019-05-16T12:39:08.916Z,102018.82
2019-05-16T12:41:11.916Z,102012.47
2019-05-16T12:43:14.654Z,102006.37
2019-05-16T12:45:17.397Z,101996.80
2019-05-16T12:47:20.406Z,101999.41
2019-05-16T12:49:22.876Z,101998.55
2019-05-16T12:51:26.458Z,101995.73
2019-05-16T12:53:31.692Z,102003.28
2019-05-16T12:55:32.738Z,102004.71
2019-05-16T12:57:38.317Z,101999.69
2019-05-16T12:59:42.147Z,101991.06
2019-05-16T13:01:43.343Z,101988.38
2019-05-16T13:03:47.875Z,101983.09
2019-05-16T13:05:49.581Z,101977.92
2019-05-16T13:07:51.671Z,101974.22
2019-05-16T13:09:54.016Z,101966.32
2019-05-16T13:11:57.792Z,101971.44
2019-05-16T13:14:06.526Z,101953.55
2019-05-16T13:16:04.186Z,101955.61
2019-05-16T13:18:09.049Z,101964.08
2019-05-16T13:20:11.954Z,101957.48
2019-05-16T13:22:16.559Z,101952.15
2019-05-16T13:24:18.843Z,101944.14
2019-05-16T13:26:21.234Z,101944.95
2019-05-16T13:28:23.424Z,101942.91
2019-05-16T13:30:26.868Z,101949.82
2019-05-16T13:32:29.124Z,101941.16
2019-05-16T13:34:31.103Z,101936.31
2019-05-16T13:36:33.438Z,101929.55
2019-05-16T13:38:35.807Z,101925.58
2019-05-16T13:40:37.825Z,101924.86
2019-05-16T13:42:39.900Z,101925.05
2019-05-16T13:44:42.115Z,101925.81
2019-05-16T13:46:46.632Z,101916.08
2019-05-16T13:48:48.127Z,101913.11
2019-05-16T13:50:50.347Z,101908.98
2019-05-16T13:52:52.543Z,101912.23
2019-05-16T13:54:56.411Z,101902.95
2019-05-16T13:56:58.904Z,101905.38
2019-05-16T13:59:01.228Z,101906.66
2019-05-16T14:01:07.608Z,101905.28
2019-05-16T14:03:08.573Z,101910.60
2019-05-16T14:05:12.181Z,101908.75
2019-05-16T14:07:17.001Z,101890.25
2019-05-16T14:09:18.758Z,101881.34
2019-05-16T14:11:20.606Z,101885.53
2019-05-16T14:13:22.773Z,101886.45
2019-05-16T14:15:27.093Z,101878.45
2019-05-16T14:17:29.250Z,101871.84
2019-05-16T14:19:32.569Z,101870.20
2019-05-16T14:21:34.835Z,101864.84
2019-05-16T14:23:37.945Z,101870.77
2019-05-16T14:25:40.531Z,101858.80
2019-05-16T14:27:42.823Z,101850.72
2019-05-16T14:29:47.495Z,101848.49
2019-05-16T14:31:49.308Z,101846.79
2019-05-16T14:33:51.348Z,101839.34
2019-05-16T14:35:53.587Z,101834.23
2019-05-16T14:37:58.122Z,101832.59
2019-05-16T14:40:01.426Z,101825.40
2019-05-16T14:42:04.155Z,101815.42
2019-05-16T14:44:09.300Z,101812.34
2019-05-16T14:46:11.734Z,101807.39
2019-05-16T14:48:13.888Z,101796.34
2019-05-16T14:50:17.033Z,101808.36
2019-05-16T14:52:19.542Z,101810.27
2019-05-16T14:54:21.306Z,101800.30
2019-05-16T14:56:23.494Z,101800.33
2019-05-16T14:58:30.379Z,101813.06
2019-05-16T15:00:30.071Z,101801.95
2019-05-16T15:02:32.303Z,101805.09
2019-05-16T15:04:37.410Z,101786.13
2019-05-16T15:06:38.925Z,101797.11
2019-05-16T15:08:41.100Z,101790.09
2019-05-16T15:10:43.346Z,101795.63
2019-05-16T15:12:46.921Z,101781.50
2019-05-16T15:14:49.237Z,101787.75
2019-05-16T15:16:52.495Z,101775.05
2019-05-16T15:18:54.492Z,101778.04
2019-05-16T15:20:57.490Z,101773.63
2019-05-16T15:23:00.910Z,101772.50
2019-05-16T15:25:03.165Z,101773.24
2019-05-16T15:27:07.904Z,101769.48
2019-05-16T15:29:09.352Z,101758.08
2019-05-16T15:31:11.498Z,101758.08
2019-05-16T15:33:13.493Z,101756.27
2019-05-16T15:35:18.157Z,101750.80
2019-05-16T15:37:20.177Z,101743.96
2019-05-16T15:39:22.210Z,101742.54
2019-05-16T15:41:24.486Z,101734.86
2019-05-16T15:43:27.529Z,101730.98
2019-05-16T15:45:43.074Z,101740.33
2019-05-16T15:47:43.068Z,101730.22
2019-05-16T15:49:47.567Z,101725.59
2019-05-16T15:51:49.670Z,101725.34
2019-05-16T15:53:51.880Z,101716.38
2019-05-16T15:55:57.545Z,101710.89
2019-05-16T15:57:58.942Z,101714.77
2019-05-16T16:00:02.719Z,101701.55
2019-05-16T16:02:07.257Z,101704.70
2019-05-16T16:04:09.614Z,101704.70
2019-05-16T16:06:12.085Z,101699.00
2019-05-16T16:08:13.799Z,101698.64
2019-05-16T16:10:19.570Z,101700.43
2019-05-16T16:12:21.944Z,101689.33
2019-05-16T16:14:24.146Z,101685.55
2019-05-16T16:16:26.812Z,101689.78
2019-05-16T16:18:29.346Z,101684.59
2019-05-16T16:20:32.801Z,101682.84
2019-05-16T16:22:37.542Z,101681.03
2019-05-16T16:24:39.337Z,101686.60
2019-05-16T16:26:42.752Z,101678.46
2019-05-16T16:28:44.540Z,101681.64
2019-05-16T16:30:47.929Z,101666.75
2019-05-16T16:32:50.241Z,101669.52
2019-05-16T16:34:52.290Z,101659.38
2019-05-16T16:36:56.808Z,101654.70
2019-05-16T16:38:58.737Z,101655.70
2019-05-16T16:41:00.727Z,101652.45
2019-05-16T16:43:02.998Z,101656.45
2019-05-16T16:45:07.249Z,101654.39
2019-05-16T16:47:09.447Z,101653.72
2019-05-16T16:49:11.779Z,101644.66
2019-05-16T16:51:14.185Z,101654.92
2019-05-16T16:53:17.676Z,101642.69
2019-05-16T16:55:20.206Z,101647.52
2019-05-16T16:57:22.237Z,101646.22
2019-05-16T16:59:24.280Z,101640.83
2019-05-16T17:01:27.314Z,101636.53
2019-05-16T17:03:29.451Z,101626.90
2019-05-16T17:05:31.504Z,101637.55
2019-05-16T17:07:36.998Z,101640.10
2019-05-16T17:09:38.186Z,101639.75
2019-05-16T17:11:40.560Z,101637.59
2019-05-16T17:13:43.044Z,101627.28
2019-05-16T17:15:47.104Z,101640.86
2019-05-16T17:17:48.948Z,101628.59
2019-05-16T17:19:51.021Z,101627.19
2019-05-16T17:22:06.291Z,101624.30
2019-05-16T17:23:57.236Z,101616.73
2019-05-16T17:25:59.614Z,101613.97
2019-05-16T17:28:02.073Z,101616.08
2019-05-16T17:30:12.353Z,101609.13
2019-05-16T17:32:16.555Z,101603.52
2019-05-16T17:34:18.572Z,101602.40
2019-05-16T17:36:20.796Z,101598.44
2019-05-16T17:38:23.172Z,101597.02
2019-05-16T17:40:27.392Z,101598.41
2019-05-16T17:42:29.507Z,101601.66
2019-05-16T17:44:32.036Z,101599.00
2019-05-16T17:46:40.047Z,101598.89
2019-05-16T17:48:38.402Z,101595.63
2019-05-16T17:50:40.763Z,101590.00
2019-05-16T17:52:42.959Z,101594.86
2019-05-16T17:54:45.062Z,101590.13
2019-05-16T17:56:47.342Z,101592.20
2019-05-16T17:58:49.400Z,101590.77
2019-05-16T18:00:51.465Z,101585.21
2019-05-16T18:02:53.621Z,101585.67
2019-05-16T18:04:56.722Z,101592.50
2019-05-16T18:06:58.936Z,101592.97
2019-05-16T18:09:01.250Z,101580.78
2019-05-16T18:11:04.102Z,101583.11
2019-05-16T18:13:07.836Z,101590.72
2019-05-16T18:15:10.928Z,101585.72
2019-05-16T18:17:17.811Z,101590.11
2019-05-16T18:19:20.070Z,101583.98
2019-05-16T18:21:22.426Z,101578.20
2019-05-16T18:23:24.472Z,101587.07
2019-05-16T18:25:26.912Z,101590.19
2019-05-16T18:27:28.881Z,101589.81
2019-05-16T18:29:31.664Z,101584.37
2019-05-16T18:31:33.758Z,101587.14
2019-05-16T18:33:37.094Z,101583.67
2019-05-16T18:35:39.824Z,101580.55
2019-05-16T18:37:41.606Z,101584.55
2019-05-16T18:39:44.088Z,101581.66
2019-05-16T18:41:47.232Z,101581.15
2019-05-16T18:43:49.532Z,101583.65
2019-05-16T18:45:51.673Z,101581.86
2019-05-16T18:47:53.710Z,101580.89
2019-05-16T18:49:57.371Z,101578.31
2019-05-16T18:51:59.708Z,101576.91
2019-05-16T18:54:01.880Z,101580.74
2019-05-16T18:56:04.038Z,101579.70
2019-05-16T18:58:08.417Z,101583.80
2019-05-16T19:00:11.149Z,101572.91
2019-05-16T19:02:13.289Z,101582.55
2019-05-16T19:04:17.531Z,101577.88
2019-05-16T19:06:20.026Z,101575.69
2019-05-16T19:08:22.259Z,101576.39
2019-05-16T19:10:26.956Z,101572.84
2019-05-16T19:12:29.222Z,101569.81
2019-05-16T19:14:31.283Z,101566.13
2019-05-16T19:16:33.575Z,101570.08
2019-05-16T19:18:36.879Z,101572.28
2019-05-16T19:20:39.080Z,101563.62
2019-05-16T19:22:41.285Z,101576.42
2019-05-16T19:24:43.427Z,101562.09
2019-05-16T19:26:46.946Z,101568.64
2019-05-16T19:28:49.522Z,101566.56
2019-05-16T19:30:51.570Z,101568.78
2019-05-16T19:32:53.959Z,101576.84
2019-05-16T19:34:57.437Z,101579.63
2019-05-16T19:36:59.672Z,101575.24
2019-05-16T19:39:01.766Z,101581.02
2019-05-16T19:41:08.099Z,101577.23
2019-05-16T19:43:09.623Z,101581.44
2019-05-16T19:45:12.247Z,101583.78
2019-05-16T19:47:15.481Z,101578.52
2019-05-16T19:49:17.508Z,101577.23
2019-05-16T19:51:19.974Z,101583.01
2019-05-16T19:53:22.062Z,101583.16
2019-05-16T19:55:24.213Z,101582.34
2019-05-16T19:57:27.608Z,101578.76
2019-05-16T19:59:29.992Z,101581.58
2019-05-16T20:01:31.851Z,101578.81
2019-05-16T20:03:36.396Z,101585.67
2019-05-16T20:05:38.420Z,101584.92
2019-05-16T20:07:40.611Z,101582.16
2019-05-16T20:09:43.023Z,101582.40
2019-05-16T20:11:46.401Z,101578.67
2019-05-16T20:13:48.812Z,101588.36
2019-05-16T20:15:51.014Z,101579.63
2019-05-16T20:17:56.129Z,101588.45
2019-05-16T20:19:57.511Z,101583.25
2019-05-16T20:22:00.101Z,101591.70
2019-05-16T20:24:02.582Z,101576.34
2019-05-16T20:26:04.577Z,101581.05
2019-05-16T20:28:09.126Z,101583.64
2019-05-16T20:30:11.469Z,101576.24
2019-05-16T20:32:16.710Z,101573.38
2019-05-16T20:34:18.674Z,101575.85
2019-05-16T20:36:21.109Z,101575.19
2019-05-16T20:38:22.863Z,101577.47
2019-05-16T20:40:26.557Z,101584.21
2019-05-16T20:42:28.941Z,101570.89
2019-05-16T20:44:31.002Z,101570.66
2019-05-16T20:46:33.095Z,101570.17
2019-05-16T20:48:36.910Z,101565.21
2019-05-16T20:50:39.228Z,101562.45
2019-05-16T20:52:41.633Z,101559.50
2019-05-16T20:54:44.046Z,101563.02
2019-05-16T20:56:49.206Z,101561.21
2019-05-16T20:58:50.567Z,101551.47
2019-05-16T21:00:52.611Z,101560.34
2019-05-16T21:02:57.356Z,101556.28
2019-05-16T21:04:59.176Z,101545.84
2019-05-16T21:07:09.970Z,101541.22
2019-05-16T21:09:06.755Z,101536.68
2019-05-16T21:11:09.041Z,101543.34
2019-05-16T21:13:11.664Z,101539.84
2019-05-16T21:15:14.251Z,101534.87
2019-05-16T21:17:17.457Z,101538.45
2019-05-16T21:19:20.233Z,101539.59
2019-05-16T21:21:22.471Z,101527.88
2019-05-16T21:23:27.203Z,101528.77
2019-05-16T21:25:28.635Z,101526.52
2019-05-16T21:27:30.712Z,101519.12
2019-05-16T21:29:32.900Z,101514.46
2019-05-16T21:31:36.856Z,101521.47
2019-05-16T21:33:39.185Z,101513.66
2019-05-16T21:35:41.224Z,101511.06
2019-05-16T21:37:43.466Z,101497.30
2019-05-16T21:39:47.491Z,101497.81
2019-05-16T21:41:49.760Z,101498.67
2019-05-16T21:43:52.104Z,101494.13
2019-05-16T21:45:53.864Z,101493.80
2019-05-16T21:47:56.841Z,101485.09
2019-05-16T21:49:59.409Z,101484.13
2019-05-16T21:52:02.733Z,101481.45
2019-05-16T21:54:07.019Z,101485.35
2019-05-16T21:56:09.029Z,101483.45
2019-05-16T21:58:11.139Z,101481.69
2019-05-16T22:00:20.613Z,101474.78
2019-05-16T22:02:26.569Z,101479.89
2019-05-16T22:04:30.137Z,101470.97
2019-05-16T22:06:32.534Z,101477.13
2019-05-16T22:08:36.708Z,101471.92
2019-05-16T22:10:40.974Z,101461.20
2019-05-16T22:12:47.522Z,101469.91
2019-05-16T22:14:51.273Z,101458.12
2019-05-16T22:16:53.636Z,101461.93
2019-05-16T22:18:57.116Z,101451.53
2019-05-16T22:20:59.086Z,101456.64
2019-05-16T22:23:01.144Z,101455.83
2019-05-16T22:25:03.936Z,101450.73
2019-05-16T22:27:07.548Z,101443.07
2019-05-16T22:29:09.274Z,101439.67
2019-05-16T22:31:11.312Z,101433.16
2019-05-16T22:33:13.656Z,101433.64
2019-05-16T22:35:17.908Z,101436.25
2019-05-16T22:37:19.997Z,101423.33
2019-05-16T22:39:22.281Z,101420.33
2019-05-16T22:41:26.451Z,101422.82
2019-05-16T22:43:28.446Z,101417.89
2019-05-16T22:46:41.181Z,101417.38
2019-05-16T22:48:43.454Z,101411.23
2019-05-16T22:50:45.852Z,101409.52
2019-05-16T22:52:48.182Z,101408.47
2019-05-16T22:54:50.340Z,101403.33
2019-05-16T22:56:52.490Z,101403.56
2019-05-16T22:58:56.415Z,101405.94
2019-05-16T23:00:59.114Z,101397.07
2019-05-16T23:03:01.266Z,101393.50
2019-05-16T23:05:04.200Z,101394.16
2019-05-16T23:07:07.880Z,101394.04
2019-05-16T23:09:09.913Z,101384.55
2019-05-16T23:11:12.373Z,101384.06
2019-05-16T23:13:14.031Z,101385.53
2019-05-16T23:15:17.104Z,101382.09
2019-05-16T23:17:19.688Z,101382.58
2019-05-16T23:19:21.480Z,101371.70
2019-05-16T23:21:23.478Z,101370.88
2019-05-16T23:23:26.671Z,101371.19